Time;durP1;ratioP1;P1;durP2;ratioP2;P2;SDS_P1;SDS_P2;PMS_P1;PMS_P2;Temp;Humidity;BMP_temperature;BMP_pressure;BME280_temperature;BME280_humidity;BME280_pressure;Samples;Min_cycle;Max_cycle;Signal;HPM_P1;HPM_P2
2023/06/24 00:01:25;;;;;;;9.02;4.65;;;19.00;99.90;;;;;;5073692;28;20059;-70
2023/06/24 00:03:52;;;;;;;9.07;4.82;;;19.00;99.90;;;;;;5093509;28;20475;-69
2023/06/24 00:06:19;;;;;;;11.20;5.10;;;19.00;99.90;;;;;;5093722;28;20027;-70
2023/06/24 00:08:46;;;;;;;11.20;4.88;;;19.00;99.90;;;;;;5093754;28;20031;-70
2023/06/24 00:11:13;;;;;;;8.45;4.97;;;19.00;99.90;;;;;;5092222;28;20020;-70
2023/06/24 00:13:39;;;;;;;9.75;5.28;;;19.00;99.90;;;;;;5096964;27;20023;-71
2023/06/24 00:16:09;;;;;;;10.55;5.25;;;19.00;99.90;;;;;;5095000;28;20047;-70
2023/06/24 00:18:36;;;;;;;9.20;4.95;;;19.00;99.90;;;;;;5095046;28;20091;-70
2023/06/24 00:21:04;;;;;;;11.82;4.70;;;18.90;99.90;;;;;;5091959;28;20020;-71
2023/06/24 00:23:34;;;;;;;7.45;4.35;;;18.90;99.90;;;;;;5096894;28;20023;-72
2023/06/24 00:26:00;;;;;;;16.88;8.23;;;18.90;99.90;;;;;;5094905;28;20016;-73
2023/06/24 00:28:26;;;;;;;8.63;4.30;;;18.90;99.90;;;;;;5094712;28;20043;-71
2023/06/24 00:30:52;;;;;;;10.93;6.13;;;18.90;99.90;;;;;;5093520;28;20020;-69
2023/06/24 00:33:19;;;;;;;8.25;4.40;;;18.80;99.90;;;;;;5095729;28;20133;-71
2023/06/24 00:35:45;;;;;;;12.48;6.22;;;18.80;99.90;;;;;;5108063;28;20169;-71
2023/06/24 00:38:10;;;;;;;11.63;5.72;;;18.80;99.90;;;;;;5090897;28;20459;-70
2023/06/24 00:40:37;;;;;;;11.88;5.57;;;18.80;99.90;;;;;;5090515;28;20027;-70
2023/06/24 00:43:04;;;;;;;10.07;4.80;;;18.70;99.90;;;;;;5109398;28;20072;-69
2023/06/24 00:45:30;;;;;;;9.20;4.80;;;18.70;99.90;;;;;;5097066;28;20020;-70
2023/06/24 00:47:56;;;;;;;9.65;4.00;;;18.70;99.90;;;;;;5107915;28;20035;-70
2023/06/24 00:50:22;;;;;;;12.02;5.10;;;18.70;99.90;;;;;;5096472;28;20024;-70
2023/06/24 00:52:49;;;;;;;10.48;4.15;;;18.70;99.90;;;;;;5107331;28;20046;-71
2023/06/24 00:55:15;;;;;;;8.95;4.05;;;18.60;99.90;;;;;;5091776;28;20045;-69
2023/06/24 00:57:45;;;;;;;11.68;5.00;;;18.60;99.90;;;;;;5109525;28;20085;-71
2023/06/24 01:00:14;;;;;;;8.73;4.57;;;18.60;99.90;;;;;;5101874;28;20059;-70
2023/06/24 01:02:42;;;;;;;10.90;4.20;;;18.60;99.90;;;;;;5100855;28;20070;-70
2023/06/24 01:05:09;;;;;;;10.07;4.95;;;18.60;99.90;;;;;;5109681;28;20128;-71
2023/06/24 01:07:36;;;;;;;10.27;5.28;;;18.60;99.90;;;;;;5103216;28;20031;-70
2023/06/24 01:10:05;;;;;;;10.50;5.60;;;18.60;99.90;;;;;;5106559;28;20021;-69
2023/06/24 01:12:40;;;;;;;9.50;4.97;;;18.50;99.90;;;;;;5093475;28;20032;-69
2023/06/24 01:15:08;;;;;;;7.57;4.90;;;18.50;99.90;;;;;;5109171;28;20035;-68
2023/06/24 01:17:46;;;;;;;9.88;4.93;;;18.50;99.90;;;;;;5096382;28;20039;-69
2023/06/24 01:20:21;;;;;;;9.63;5.03;;;18.40;99.90;;;;;;5104683;28;20372;-69
2023/06/24 01:23:14;;;;;;;12.80;4.55;;;18.40;99.90;;;;;;5106619;28;20024;-71
2023/06/24 01:26:05;;;;;;;11.32;4.80;;;18.40;99.90;;;;;;5080975;28;20026;-71
2023/06/24 01:28:56;;;;;;;11.13;5.25;;;18.30;99.90;;;;;;5102002;28;20025;-70
2023/06/24 01:31:34;;;;;;;10.32;5.03;;;18.30;99.90;;;;;;5092710;28;20036;-70
2023/06/24 01:34:13;;;;;;;8.77;4.70;;;18.20;99.90;;;;;;5097597;28;20035;-69
2023/06/24 01:36:44;;;;;;;10.45;5.50;;;18.20;99.90;;;;;;5105031;28;20040;-70
2023/06/24 01:39:13;;;;;;;10.52;5.07;;;18.20;99.90;;;;;;5095907;28;20498;-70
2023/06/24 01:41:46;;;;;;;10.75;5.20;;;18.10;99.90;;;;;;5080724;28;20122;-71
2023/06/24 01:44:15;;;;;;;14.48;7.35;;;18.10;99.90;;;;;;5104055;28;20059;-70
2023/06/24 01:46:42;;;;;;;12.77;5.40;;;18.10;99.90;;;;;;5090494;28;20024;-71
2023/06/24 01:49:12;;;;;;;11.23;5.32;;;18.00;99.90;;;;;;5108956;28;20077;-71
2023/06/24 01:51:40;;;;;;;9.88;5.18;;;18.00;99.90;;;;;;5079996;28;20047;-71
2023/06/24 01:54:10;;;;;;;10.73;5.25;;;18.00;99.90;;;;;;5105131;28;20020;-71
2023/06/24 01:56:39;;;;;;;9.68;4.97;;;17.90;99.90;;;;;;5104734;28;20035;-69
2023/06/24 01:59:05;;;;;;;11.60;4.82;;;17.90;99.90;;;;;;5096617;28;20028;-70
2023/06/24 02:01:37;;;;;;;9.40;4.90;;;17.90;99.90;;;;;;5107866;28;20571;-70
2023/06/24 02:04:07;;;;;;;11.02;4.88;;;17.90;99.90;;;;;;5089727;28;20238;-71
2023/06/24 02:06:34;;;;;;;14.25;6.38;;;17.90;99.90;;;;;;5108763;28;20475;-70
2023/06/24 02:09:01;;;;;;;10.45;4.95;;;17.90;99.90;;;;;;5097211;28;20614;-70
2023/06/24 02:11:29;;;;;;;11.70;5.95;;;17.90;99.90;;;;;;5108940;28;20064;-71
2023/06/24 02:13:56;;;;;;;9.13;5.05;;;17.90;99.90;;;;;;5098270;28;20024;-70
2023/06/24 02:16:23;;;;;;;11.02;5.20;;;18.00;99.90;;;;;;5102473;28;20035;-70
2023/06/24 02:18:49;;;;;;;10.40;5.63;;;18.00;99.90;;;;;;5105757;28;20035;-70
2023/06/24 02:21:17;;;;;;;11.27;5.03;;;18.00;99.90;;;;;;5093196;28;20081;-70
2023/06/24 02:23:44;;;;;;;10.55;5.22;;;18.00;99.90;;;;;;5090954;28;20023;-68
2023/06/24 02:26:10;;;;;;;10.50;6.13;;;17.90;99.90;;;;;;5104141;28;20042;-71
2023/06/24 02:28:39;;;;;;;11.10;5.60;;;18.00;99.90;;;;;;5104293;28;20035;-71
2023/06/24 02:31:06;;;;;;;12.98;5.65;;;18.00;99.90;;;;;;5095000;28;20058;-70
2023/06/24 02:33:32;;;;;;;12.80;5.75;;;17.90;99.90;;;;;;5108885;28;20043;-70
2023/06/24 02:35:57;;;;;;;11.93;5.28;;;18.00;99.90;;;;;;5098726;28;20039;-70
2023/06/24 02:38:23;;;;;;;12.00;5.97;;;17.90;99.90;;;;;;5100943;28;20051;-71
2023/06/24 02:40:49;;;;;;;11.85;5.72;;;17.90;99.90;;;;;;5104571;28;20482;-70
2023/06/24 02:43:15;;;;;;;10.60;5.85;;;17.80;99.90;;;;;;5095498;28;20027;-69
2023/06/24 02:45:41;;;;;;;12.00;5.53;;;17.80;99.90;;;;;;5108065;28;20024;-71
2023/06/24 02:48:09;;;;;;;11.50;5.38;;;17.80;99.90;;;;;;5100109;28;20451;-69
2023/06/24 02:50:37;;;;;;;11.35;5.82;;;17.70;99.90;;;;;;5100368;28;20028;-71
2023/06/24 02:53:04;;;;;;;10.95;5.65;;;17.70;99.90;;;;;;5107665;28;20081;-69
2023/06/24 02:55:30;;;;;;;10.48;4.85;;;17.80;99.90;;;;;;5095357;28;20032;-71
2023/06/24 02:57:57;;;;;;;11.45;5.65;;;17.80;99.90;;;;;;5098008;28;20035;-70
2023/06/24 03:00:23;;;;;;;11.10;5.53;;;17.80;99.90;;;;;;5106021;28;20486;-70
2023/06/24 03:02:50;;;;;;;14.70;5.60;;;17.80;99.90;;;;;;5109881;28;20028;-70
2023/06/24 03:05:16;;;;;;;11.52;5.50;;;17.90;99.90;;;;;;5099071;28;20066;-69
2023/06/24 03:07:42;;;;;;;11.75;6.10;;;17.90;99.90;;;;;;5110071;28;20451;-69
2023/06/24 03:10:10;;;;;;;12.65;5.10;;;18.00;99.90;;;;;;5103818;28;20059;-71
2023/06/24 03:12:36;;;;;;;13.13;5.82;;;18.00;99.90;;;;;;5103970;28;20036;-69
2023/06/24 03:15:02;;;;;;;10.45;5.63;;;18.00;99.90;;;;;;5093158;28;20035;-70
2023/06/24 03:17:27;;;;;;;12.13;5.70;;;18.00;99.90;;;;;;5112358;28;20463;-68
2023/06/24 03:19:53;;;;;;;13.32;6.00;;;18.00;99.90;;;;;;5101513;28;20034;-70
2023/06/24 03:22:19;;;;;;;8.50;4.80;;;18.10;99.90;;;;;;5106216;28;20028;-71
2023/06/24 03:24:45;;;;;;;10.65;5.00;;;18.10;99.90;;;;;;5108738;28;20023;-72
2023/06/24 03:27:10;;;;;;;13.60;5.57;;;18.10;99.90;;;;;;5099183;28;20032;-71
2023/06/24 03:29:36;;;;;;;10.82;5.03;;;18.10;99.90;;;;;;5112135;28;20020;-71
2023/06/24 03:32:02;;;;;;;11.20;5.13;;;18.10;99.90;;;;;;5093416;28;20032;-69
2023/06/24 03:34:27;;;;;;;10.25;4.90;;;18.10;99.90;;;;;;5094040;28;20041;-69
2023/06/24 03:36:56;;;;;;;10.32;5.25;;;18.10;99.90;;;;;;5106879;28;20058;-69
2023/06/24 03:39:22;;;;;;;12.35;5.55;;;18.00;99.90;;;;;;5098286;28;20039;-68
2023/06/24 03:41:48;;;;;;;10.75;5.20;;;18.10;99.90;;;;;;5110032;28;20024;-70
2023/06/24 03:44:14;;;;;;;10.60;5.50;;;18.10;99.90;;;;;;5103602;28;20149;-70
2023/06/24 03:46:39;;;;;;;9.25;4.80;;;18.00;99.90;;;;;;5102846;28;20028;-70
2023/06/24 03:49:05;;;;;;;11.15;4.53;;;18.00;99.90;;;;;;5102743;28;20115;-70
2023/06/24 03:51:31;;;;;;;11.95;4.82;;;18.00;99.90;;;;;;5097027;28;20031;-71
2023/06/24 03:53:56;;;;;;;11.63;5.05;;;18.00;99.90;;;;;;5101374;28;20027;-70
2023/06/24 03:56:22;;;;;;;9.68;5.28;;;18.00;99.90;;;;;;5104913;28;20050;-69
2023/06/24 03:58:48;;;;;;;8.68;4.30;;;18.00;99.90;;;;;;5106908;28;20070;-70
2023/06/24 04:01:13;;;;;;;12.13;5.15;;;17.90;99.90;;;;;;5097512;28;20032;-70
2023/06/24 04:03:39;;;;;;;10.25;4.78;;;17.90;99.90;;;;;;5111092;28;20376;-70
2023/06/24 04:06:04;;;;;;;9.57;4.82;;;17.90;99.90;;;;;;5101950;28;20031;-69
2023/06/24 04:08:30;;;;;;;11.95;4.90;;;17.90;99.90;;;;;;5100680;28;20047;-70
2023/06/24 04:11:00;;;;;;;12.88;5.20;;;18.00;99.90;;;;;;5105936;28;20475;-69
2023/06/24 04:13:25;;;;;;;11.75;4.97;;;17.90;99.90;;;;;;5097855;28;20077;-70
2023/06/24 04:15:51;;;;;;;11.45;5.03;;;18.00;99.90;;;;;;5107495;28;20032;-69
2023/06/24 04:18:18;;;;;;;10.05;5.05;;;18.00;99.90;;;;;;5103426;28;20115;-68
2023/06/24 04:20:44;;;;;;;10.35;4.72;;;18.00;99.90;;;;;;5101268;28;20032;-70
2023/06/24 04:23:10;;;;;;;13.52;4.97;;;18.10;99.90;;;;;;5110827;28;20522;-71
2023/06/24 04:25:36;;;;;;;8.75;4.68;;;18.20;99.90;;;;;;5081114;28;20072;-70
2023/06/24 04:28:04;;;;;;;9.35;4.90;;;18.20;99.90;;;;;;5103502;28;20095;-70
2023/06/24 04:30:30;;;;;;;13.85;5.05;;;18.20;99.90;;;;;;5105345;28;20133;-70
2023/06/24 04:32:55;;;;;;;13.57;4.55;;;18.30;99.90;;;;;;5099355;28;20052;-70
2023/06/24 04:35:21;;;;;;;10.90;4.90;;;18.20;99.90;;;;;;5110545;28;20034;-69
2023/06/24 04:37:49;;;;;;;9.98;4.85;;;18.20;99.90;;;;;;5099010;28;20110;-69
2023/06/24 04:40:14;;;;;;;12.43;5.00;;;18.30;99.90;;;;;;5105410;28;20158;-69
2023/06/24 04:42:40;;;;;;;9.85;4.63;;;18.40;99.90;;;;;;5105328;28;20106;-71
2023/06/24 04:45:06;;;;;;;9.82;4.45;;;18.40;99.90;;;;;;5092988;28;20116;-70
2023/06/24 04:47:32;;;;;;;10.35;4.85;;;18.50;99.90;;;;;;5099144;28;20043;-69
2023/06/24 04:49:57;;;;;;;11.10;5.05;;;18.60;99.90;;;;;;5102923;28;20032;-69
2023/06/24 04:52:26;;;;;;;10.15;4.88;;;18.60;99.90;;;;;;5103707;28;20043;-69
2023/06/24 04:54:51;;;;;;;10.48;4.88;;;18.60;99.90;;;;;;5107867;28;20035;-70
2023/06/24 04:57:30;;;;;;;10.65;5.25;;;18.70;99.90;;;;;;5096925;28;20047;-69
2023/06/24 04:59:57;;;;;;;9.70;4.85;;;18.80;99.90;;;;;;5107118;28;20028;-70
2023/06/24 05:02:23;;;;;;;9.68;5.10;;;18.80;99.90;;;;;;5095644;28;20036;-70
2023/06/24 05:04:49;;;;;;;8.15;4.68;;;18.90;99.90;;;;;;5106579;28;20379;-70
2023/06/24 05:07:15;;;;;;;13.65;5.05;;;18.90;99.90;;;;;;5112879;28;20044;-70
2023/06/24 05:09:41;;;;;;;9.77;5.03;;;19.00;99.90;;;;;;5097530;28;20020;-70
2023/06/24 05:12:07;;;;;;;10.07;5.03;;;19.20;99.90;;;;;;5105764;28;20399;-70
2023/06/24 05:14:36;;;;;;;8.48;4.63;;;19.40;99.90;;;;;;5105172;28;20023;-70
2023/06/24 05:17:03;;;;;;;11.63;4.93;;;19.50;99.90;;;;;;5097743;28;20053;-70
2023/06/24 05:19:28;;;;;;;10.38;5.10;;;19.70;99.90;;;;;;5109405;28;20383;-69
2023/06/24 05:21:54;;;;;;;10.70;4.82;;;19.90;99.90;;;;;;5092365;28;20024;-70
2023/06/24 05:24:20;;;;;;;11.82;4.80;;;20.00;99.90;;;;;;5098834;28;20099;-69
2023/06/24 05:26:48;;;;;;;14.15;5.10;;;20.20;99.90;;;;;;5098721;28;20028;-70
2023/06/24 05:29:14;;;;;;;11.10;5.15;;;20.50;99.90;;;;;;5097214;28;20028;-69
2023/06/24 05:31:40;;;;;;;11.23;4.43;;;21.00;99.90;;;;;;5102322;28;20027;-71
2023/06/24 05:34:06;;;;;;;10.05;4.10;;;21.70;99.90;;;;;;5100698;28;20058;-70
2023/06/24 05:36:32;;;;;;;10.00;4.60;;;22.40;99.90;;;;;;5091881;28;20028;-70
2023/06/24 05:38:57;;;;;;;8.30;3.90;;;23.20;99.90;;;;;;5100494;28;20035;-69
2023/06/24 05:41:23;;;;;;;11.55;4.45;;;24.00;99.90;;;;;;5100781;28;20396;-69
2023/06/24 05:43:49;;;;;;;10.52;4.18;;;24.60;99.90;;;;;;5102069;28;20395;-68
2023/06/24 05:46:15;;;;;;;7.88;3.97;;;25.20;99.90;;;;;;5093839;28;20024;-69
2023/06/24 05:48:42;;;;;;;12.85;4.30;;;25.90;99.90;;;;;;5098641;28;20024;-69
2023/06/24 05:51:08;;;;;;;11.63;4.22;;;26.50;98.80;;;;;;5098836;28;20860;-69
2023/06/24 05:53:34;;;;;;;7.57;3.47;;;27.00;98.10;;;;;;5107651;28;20456;-71
2023/06/24 05:55:59;;;;;;;10.02;4.22;;;27.30;97.20;;;;;;5099363;28;20072;-70
2023/06/24 05:58:25;;;;;;;7.82;3.67;;;27.40;97.00;;;;;;5101492;28;20460;-68
2023/06/24 06:00:51;;;;;;;9.07;3.60;;;27.90;96.40;;;;;;5091399;28;20384;-69
2023/06/24 06:03:16;;;;;;;6.82;3.53;;;28.30;95.80;;;;;;5091750;28;20028;-70
2023/06/24 06:05:42;;;;;;;9.10;3.50;;;28.70;95.10;;;;;;5092143;28;20095;-69
2023/06/24 06:08:07;;;;;;;8.32;3.60;;;29.20;94.90;;;;;;5089776;28;20034;-69
2023/06/24 06:10:33;;;;;;;8.50;3.35;;;29.90;94.20;;;;;;5092130;28;20036;-71
2023/06/24 06:12:58;;;;;;;7.30;3.35;;;30.30;93.00;;;;;;5091564;28;20099;-68
2023/06/24 06:15:24;;;;;;;11.65;3.83;;;30.60;92.70;;;;;;5092014;28;20056;-69
2023/06/24 06:17:50;;;;;;;8.23;4.30;;;30.80;92.40;;;;;;5090085;28;20032;-70
2023/06/24 06:20:16;;;;;;;6.05;3.55;;;31.00;92.20;;;;;;5091264;28;20078;-71
2023/06/24 06:22:42;;;;;;;7.93;3.85;;;31.10;91.80;;;;;;5091673;28;20032;-69
2023/06/24 06:25:07;;;;;;;8.88;3.90;;;31.40;91.80;;;;;;5091102;28;20140;-69
2023/06/24 06:27:33;;;;;;;10.60;4.80;;;31.60;91.20;;;;;;5088880;28;20059;-68
2023/06/24 06:29:59;;;;;;;10.27;4.22;;;31.60;91.10;;;;;;5091262;28;20024;-69
2023/06/24 06:32:25;;;;;;;9.63;3.70;;;31.60;91.20;;;;;;5092908;28;20031;-69
2023/06/24 06:34:51;;;;;;;10.98;3.75;;;31.80;90.90;;;;;;5095830;28;20530;-68
2023/06/24 06:37:16;;;;;;;12.13;4.00;;;32.20;90.70;;;;;;5095876;28;20024;-70
2023/06/24 06:39:42;;;;;;;8.98;4.25;;;32.60;90.10;;;;;;5095548;28;20099;-69
2023/06/24 06:42:07;;;;;;;10.95;3.85;;;32.80;89.60;;;;;;5094140;28;20032;-70
2023/06/24 06:44:33;;;;;;;6.70;3.55;;;33.00;88.70;;;;;;5093620;28;20321;-70
2023/06/24 06:46:58;;;;;;;10.73;4.50;;;33.10;88.80;;;;;;5095522;28;20038;-70
2023/06/24 06:49:24;;;;;;;7.00;3.47;;;32.70;88.70;;;;;;5094624;28;20032;-70
2023/06/24 06:51:52;;;;;;;6.22;3.90;;;32.70;88.60;;;;;;5095620;28;20028;-69
2023/06/24 06:54:17;;;;;;;9.93;4.07;;;32.70;88.50;;;;;;5096089;28;20051;-69
2023/06/24 06:56:43;;;;;;;11.13;3.88;;;32.80;88.30;;;;;;5095754;28;20125;-70
2023/06/24 06:59:08;;;;;;;6.93;3.60;;;32.60;88.50;;;;;;5092311;28;20138;-69
2023/06/24 07:01:34;;;;;;;9.35;3.65;;;32.50;88.50;;;;;;5095638;28;20105;-70
2023/06/24 07:03:59;;;;;;;11.73;3.88;;;32.50;89.00;;;;;;5095830;28;20016;-70
2023/06/24 07:06:25;;;;;;;10.30;3.63;;;32.50;89.80;;;;;;5095763;28;20103;-68
2023/06/24 07:08:50;;;;;;;11.55;4.32;;;32.50;89.10;;;;;;5094823;28;20127;-70
2023/06/24 07:11:16;;;;;;;10.00;3.72;;;32.50;89.40;;;;;;5095707;28;20024;-70
2023/06/24 07:13:42;;;;;;;8.68;3.90;;;32.90;88.60;;;;;;5095449;28;20026;-71
2023/06/24 07:16:07;;;;;;;9.98;3.88;;;33.60;87.60;;;;;;5091499;28;20056;-71
2023/06/24 07:18:33;;;;;;;11.05;3.67;;;34.00;86.10;;;;;;5094504;28;20391;-69
2023/06/24 07:21:00;;;;;;;10.43;4.13;;;34.10;85.80;;;;;;5094202;28;20464;-70
2023/06/24 07:23:26;;;;;;;6.82;3.75;;;34.10;85.70;;;;;;5094267;28;20072;-70
2023/06/24 07:25:51;;;;;;;8.50;3.85;;;34.40;85.60;;;;;;5095035;28;20447;-69
2023/06/24 07:28:17;;;;;;;9.57;3.80;;;34.40;85.20;;;;;;5094288;28;20032;-70
2023/06/24 07:30:43;;;;;;;9.85;3.80;;;34.40;85.20;;;;;;5095558;28;20024;-69
2023/06/24 07:33:09;;;;;;;7.13;3.78;;;34.60;84.60;;;;;;5094051;28;20048;-69
2023/06/24 07:35:35;;;;;;;8.25;3.97;;;34.70;83.60;;;;;;5092167;28;20058;-68
2023/06/24 07:38:01;;;;;;;10.63;3.67;;;34.30;84.10;;;;;;5092192;28;20543;-69
2023/06/24 07:40:26;;;;;;;11.10;4.32;;;34.20;84.00;;;;;;5074323;28;20506;-69
2023/06/24 07:42:53;;;;;;;10.63;4.10;;;33.80;84.60;;;;;;5083111;28;20391;-70
2023/06/24 07:45:19;;;;;;;12.07;4.38;;;33.80;84.90;;;;;;5095105;28;20063;-70
2023/06/24 07:47:44;;;;;;;9.90;3.60;;;34.00;84.50;;;;;;5094991;28;20078;-68
2023/06/24 07:50:10;;;;;;;10.27;3.78;;;34.30;84.40;;;;;;5095094;28;20420;-69
2023/06/24 07:52:39;;;;;;;9.45;3.20;;;34.50;83.70;;;;;;5092378;28;20024;-69
2023/06/24 07:55:05;;;;;;;8.32;3.65;;;34.30;83.60;;;;;;5094810;28;20110;-69
2023/06/24 07:57:31;;;;;;;9.00;3.45;;;33.70;84.80;;;;;;5093517;28;20064;-69
2023/06/24 07:59:56;;;;;;;14.13;5.30;;;33.30;85.30;;;;;;5094540;28;20498;-70
2023/06/24 08:02:24;;;;;;;10.38;4.20;;;32.70;86.10;;;;;;5083747;28;20040;-69
2023/06/24 08:04:50;;;;;;;7.40;3.70;;;32.30;86.70;;;;;;5076556;28;20123;-69
2023/06/24 08:07:15;;;;;;;8.10;3.47;;;32.00;87.80;;;;;;5090346;28;20122;-69
2023/06/24 08:09:41;;;;;;;14.18;5.32;;;31.60;88.30;;;;;;5084134;28;20123;-68
2023/06/24 08:12:07;;;;;;;10.68;4.15;;;31.20;89.70;;;;;;5093620;28;20432;-69
2023/06/24 08:14:33;;;;;;;7.50;3.35;;;30.90;90.20;;;;;;5093923;28;20081;-71
2023/06/24 08:16:58;;;;;;;9.93;4.28;;;30.70;90.40;;;;;;5093472;28;20048;-69
2023/06/24 08:19:24;;;;;;;12.93;4.95;;;30.70;90.60;;;;;;5092846;28;20149;-69
2023/06/24 08:21:49;;;;;;;10.30;4.57;;;30.90;90.40;;;;;;5094302;28;20115;-69
2023/06/24 08:24:15;;;;;;;9.38;3.97;;;31.50;90.00;;;;;;5094447;28;20036;-69
2023/06/24 08:26:40;;;;;;;8.45;4.05;;;32.20;88.60;;;;;;5087536;28;20656;-69
2023/06/24 08:29:07;;;;;;;13.30;4.50;;;32.70;87.80;;;;;;5094108;28;20043;-68
2023/06/24 08:31:32;;;;;;;9.98;3.75;;;33.50;86.40;;;;;;5092889;28;20501;-69
2023/06/24 08:34:06;;;;;;;10.43;3.22;;;34.10;84.50;;;;;;5100888;28;20494;-69
2023/06/24 08:36:31;;;;;;;8.10;3.50;;;34.40;83.40;;;;;;5114415;28;20483;-70
2023/06/24 08:38:57;;;;;;;10.48;4.25;;;34.70;82.90;;;;;;5109803;28;20150;-69
2023/06/24 08:41:24;;;;;;;10.25;4.50;;;35.20;82.50;;;;;;5093618;28;20016;-69
2023/06/24 08:43:50;;;;;;;5.03;3.20;;;36.00;80.60;;;;;;5090529;28;20387;-70
2023/06/24 08:46:17;;;;;;;8.68;3.63;;;36.50;78.60;;;;;;5092153;28;20030;-69
2023/06/24 08:48:45;;;;;;;9.10;4.13;;;36.60;78.50;;;;;;5093692;28;20099;-68
2023/06/24 08:51:15;;;;;;;7.20;3.40;;;37.30;77.40;;;;;;5093910;28;20039;-69
2023/06/24 08:53:43;;;;;;;10.02;4.10;;;37.70;76.70;;;;;;5091694;28;20024;-69
2023/06/24 08:56:09;;;;;;;7.65;3.42;;;38.30;74.80;;;;;;5093036;28;20107;-68
2023/06/24 08:58:35;;;;;;;12.82;3.80;;;38.70;73.80;;;;;;5093331;28;20385;-69
2023/06/24 09:01:02;;;;;;;9.93;4.00;;;38.80;74.20;;;;;;5087119;28;20232;-69
2023/06/24 09:03:27;;;;;;;7.75;3.33;;;39.00;73.40;;;;;;5093776;28;20028;-69
2023/06/24 09:05:55;;;;;;;9.75;3.97;;;39.20;72.50;;;;;;5093330;28;20024;-69
2023/06/24 09:08:22;;;;;;;7.93;3.80;;;38.80;73.20;;;;;;5093362;28;20036;-70
2023/06/24 09:10:55;;;;;;;8.95;3.75;;;38.90;72.80;;;;;;5093515;28;20111;-69
2023/06/24 09:13:22;;;;;;;8.00;3.83;;;39.00;72.70;;;;;;5092479;28;20383;-70
2023/06/24 09:15:48;;;;;;;9.80;4.18;;;39.20;72.10;;;;;;5092798;28;20085;-70
2023/06/24 09:18:17;;;;;;;8.98;3.63;;;39.50;72.20;;;;;;5090783;28;20059;-69
2023/06/24 09:20:45;;;;;;;11.05;3.55;;;40.00;71.50;;;;;;5084642;28;20024;-69
2023/06/24 09:23:11;;;;;;;9.90;4.03;;;40.00;71.10;;;;;;5091825;28;20040;-69
2023/06/24 09:25:36;;;;;;;8.80;4.40;;;39.90;71.00;;;;;;5092954;28;20499;-69
2023/06/24 09:28:03;;;;;;;9.02;3.22;;;39.90;71.30;;;;;;5093289;28;20141;-70
2023/06/24 09:30:29;;;;;;;9.15;3.85;;;39.80;70.80;;;;;;5093265;28;20031;-71
2023/06/24 09:32:55;;;;;;;7.50;3.75;;;40.00;70.60;;;;;;5092736;28;20048;-69
2023/06/24 09:35:22;;;;;;;9.75;3.75;;;40.50;70.20;;;;;;5090227;28;20035;-70
2023/06/24 09:37:55;;;;;;;6.57;3.50;;;40.90;68.80;;;;;;5091541;28;20452;-68
2023/06/24 09:40:22;;;;;;;9.77;3.70;;;41.20;68.60;;;;;;5105324;28;20027;-70
2023/06/24 09:42:56;;;;;;;8.75;3.60;;;41.50;67.60;;;;;;5096717;28;20095;-69
2023/06/24 09:45:24;;;;;;;7.72;3.55;;;41.50;67.20;;;;;;5093139;28;20028;-70
2023/06/24 09:47:50;;;;;;;7.60;4.18;;;41.80;66.20;;;;;;5092176;28;20074;-69
2023/06/24 09:50:16;;;;;;;8.88;3.75;;;41.80;66.50;;;;;;5092429;28;20060;-69
2023/06/24 09:52:44;;;;;;;7.80;4.15;;;41.90;65.90;;;;;;5092772;28;20016;-69
2023/06/24 09:55:12;;;;;;;6.82;3.53;;;41.90;66.80;;;;;;5098816;28;20020;-69
2023/06/24 09:57:39;;;;;;;7.22;3.47;;;42.00;65.70;;;;;;5102117;28;20437;-70
2023/06/24 10:00:05;;;;;;;9.10;3.72;;;41.60;64.60;;;;;;5090978;28;20055;-70
2023/06/24 10:02:32;;;;;;;8.98;3.97;;;41.40;65.00;;;;;;5107983;28;20032;-70
2023/06/24 10:05:00;;;;;;;8.15;3.63;;;41.20;65.80;;;;;;5113482;28;20031;-69
2023/06/24 10:07:27;;;;;;;9.27;3.50;;;40.80;65.50;;;;;;5111775;28;20340;-68
2023/06/24 10:09:53;;;;;;;9.40;3.90;;;40.70;65.30;;;;;;5107628;28;20467;-69
2023/06/24 10:12:19;;;;;;;12.65;4.15;;;40.90;66.10;;;;;;5092421;28;20056;-70
2023/06/24 10:14:45;;;;;;;9.13;3.90;;;41.30;66.10;;;;;;5089677;28;20035;-70
2023/06/24 10:17:11;;;;;;;8.57;3.58;;;41.80;65.50;;;;;;5076329;28;20040;-70
2023/06/24 10:19:39;;;;;;;10.18;4.03;;;41.50;65.60;;;;;;5072363;28;20025;-69
2023/06/24 10:22:12;;;;;;;9.23;3.83;;;41.20;65.60;;;;;;5086959;28;20391;-68
2023/06/24 10:24:39;;;;;;;8.88;3.95;;;41.10;65.30;;;;;;5092533;28;20032;-71
2023/06/24 10:27:07;;;;;;;9.98;4.03;;;41.40;65.60;;;;;;5092441;28;20024;-70
2023/06/24 10:29:37;;;;;;;8.23;4.22;;;41.70;65.10;;;;;;5092266;28;20036;-69
2023/06/24 10:32:05;;;;;;;8.80;3.72;;;41.70;64.80;;;;;;5092197;28;20032;-70
2023/06/24 10:34:37;;;;;;;10.15;4.10;;;41.60;64.40;;;;;;5090145;28;20048;-69
2023/06/24 10:37:09;;;;;;;7.85;4.07;;;41.80;64.10;;;;;;5092002;28;20036;-68
2023/06/24 10:39:39;;;;;;;8.23;3.75;;;41.80;64.60;;;;;;5092387;28;20111;-69
2023/06/24 10:42:23;;;;;;;10.60;3.83;;;42.20;63.50;;;;;;5092226;28;20173;-70
2023/06/24 10:44:50;;;;;;;10.20;4.03;;;42.10;63.10;;;;;;5091872;28;20233;-71
2023/06/24 10:47:16;;;;;;;8.15;3.50;;;42.00;62.90;;;;;;5092123;28;20459;-70
2023/06/24 10:49:41;;;;;;;11.35;4.05;;;41.90;63.70;;;;;;5092234;28;20031;-69
2023/06/24 10:52:11;;;;;;;9.60;3.65;;;42.00;63.30;;;;;;5086623;28;20472;-69
2023/06/24 10:54:40;;;;;;;5.10;3.15;;;41.90;63.30;;;;;;5096391;28;20024;-71
2023/06/24 10:57:07;;;;;;;8.20;3.40;;;41.50;63.00;;;;;;5110345;28;20498;-70
2023/06/24 10:59:54;;;;;;;6.18;3.70;;;40.80;63.60;;;;;;5091828;28;20525;-68
2023/06/24 11:02:21;;;;;;;8.60;3.50;;;40.80;63.60;;;;;;5108082;28;20027;-70
2023/06/24 11:04:47;;;;;;;8.98;3.65;;;40.40;63.90;;;;;;5107374;28;20066;-71
2023/06/24 11:07:14;;;;;;;8.95;3.50;;;40.30;63.60;;;;;;5074244;28;20435;-69
2023/06/24 11:09:52;;;;;;;8.55;3.67;;;40.20;63.30;;;;;;5078433;28;20025;-70
2023/06/24 11:12:18;;;;;;;8.15;3.50;;;39.90;64.00;;;;;;5072133;28;20032;-70
2023/06/24 11:14:54;;;;;;;9.00;3.92;;;39.80;64.10;;;;;;5071465;28;20047;-70
2023/06/24 11:17:21;;;;;;;5.63;3.35;;;39.70;63.90;;;;;;5050175;28;20107;-69
2023/06/24 11:19:54;;;;;;;6.53;3.75;;;39.30;64.30;;;;;;5037596;28;20028;-70
2023/06/24 11:22:20;;;;;;;10.27;3.63;;;39.10;64.90;;;;;;5053851;28;20033;-69
2023/06/24 11:24:45;;;;;;;6.72;3.25;;;39.40;64.90;;;;;;5069711;28;20039;-70
2023/06/24 11:27:11;;;;;;;9.15;4.25;;;39.80;64.80;;;;;;5075077;28;20435;-70
2023/06/24 11:29:36;;;;;;;8.63;3.72;;;40.00;64.70;;;;;;5075161;28;20461;-69
2023/06/24 11:32:06;;;;;;;13.07;3.90;;;40.10;64.30;;;;;;5075035;28;20029;-69
2023/06/24 11:34:32;;;;;;;9.27;4.30;;;40.30;64.50;;;;;;5074740;28;20094;-70
2023/06/24 11:36:57;;;;;;;8.55;3.67;;;40.40;64.30;;;;;;5074922;28;20044;-70
2023/06/24 11:39:25;;;;;;;9.27;4.38;;;40.50;64.40;;;;;;5075464;28;20468;-69
2023/06/24 11:41:52;;;;;;;7.45;4.40;;;40.50;64.30;;;;;;5073212;28;20518;-70
2023/06/24 11:44:19;;;;;;;7.85;4.28;;;40.50;64.20;;;;;;5073848;28;20055;-69
2023/06/24 11:46:45;;;;;;;11.07;4.47;;;40.30;64.00;;;;;;5074719;28;20064;-69
2023/06/24 11:49:11;;;;;;;8.32;4.30;;;40.20;64.40;;;;;;5074900;28;20059;-71
2023/06/24 11:51:37;;;;;;;10.02;4.65;;;40.00;64.40;;;;;;5074836;28;20392;-69
2023/06/24 11:54:05;;;;;;;8.77;4.10;;;39.80;64.10;;;;;;5074383;28;20432;-70
2023/06/24 11:56:41;;;;;;;9.00;3.72;;;39.70;64.10;;;;;;5074778;28;20032;-69
2023/06/24 11:59:19;;;;;;;7.75;4.10;;;39.40;64.60;;;;;;5074764;28;20028;-71
2023/06/24 12:01:54;;;;;;;9.00;4.28;;;39.50;64.40;;;;;;5076589;28;20468;-69
2023/06/24 12:04:20;;;;;;;10.07;4.22;;;39.70;64.10;;;;;;5073114;28;20124;-71
2023/06/24 12:06:45;;;;;;;10.55;5.25;;;39.80;64.00;;;;;;5074265;28;20044;-69
2023/06/24 12:09:11;;;;;;;6.00;4.00;;;39.80;63.90;;;;;;5074433;28;20024;-70
2023/06/24 12:11:37;;;;;;;8.85;4.13;;;39.90;63.80;;;;;;5074421;28;20025;-68
2023/06/24 12:14:03;;;;;;;8.52;4.00;;;40.00;63.70;;;;;;5074267;28;20028;-69
2023/06/24 12:16:29;;;;;;;9.77;3.97;;;40.30;63.10;;;;;;5072912;28;20115;-70
2023/06/24 12:18:55;;;;;;;10.25;4.10;;;40.50;62.80;;;;;;5064512;28;20116;-68
2023/06/24 12:21:21;;;;;;;13.45;5.32;;;40.70;62.80;;;;;;5074285;28;20250;-70
2023/06/24 12:23:47;;;;;;;9.27;4.35;;;40.80;63.00;;;;;;5073530;28;20085;-70
2023/06/24 12:26:12;;;;;;;8.50;3.97;;;40.60;63.00;;;;;;5074097;28;20601;-69
2023/06/24 12:28:38;;;;;;;8.63;4.13;;;40.50;62.90;;;;;;5073818;28;20024;-69
2023/06/24 12:31:04;;;;;;;8.07;4.70;;;39.90;63.60;;;;;;5071459;28;20037;-70
2023/06/24 12:33:30;;;;;;;8.82;4.55;;;40.10;63.50;;;;;;5073346;28;20132;-70
2023/06/24 12:35:56;;;;;;;7.85;4.35;;;40.30;63.60;;;;;;5072610;28;20056;-70
2023/06/24 12:38:22;;;;;;;8.15;3.85;;;40.20;62.90;;;;;;5071914;28;20558;-70
2023/06/24 12:40:48;;;;;;;9.05;4.00;;;39.90;63.00;;;;;;5073646;28;20123;-70
2023/06/24 12:43:14;;;;;;;13.90;4.72;;;39.70;63.30;;;;;;5072677;28;20028;-69